sensor_id;sensor_type;location;lat;lon;timestamp;P1;durP1;ratioP1;P2;durP2;ratioP2
22922;SDS011;11627;51.322;22.816;2024-01-30T00:00:27;15.02;;;7.35;;
22922;SDS011;11627;51.322;22.816;2024-01-30T00:02:53;15.48;;;7.50;;
22922;SDS011;11627;51.322;22.816;2024-01-30T00:05:19;20.02;;;7.53;;
22922;SDS011;11627;51.322;22.816;2024-01-30T00:07:48;14.20;;;7.05;;
22922;SDS011;11627;51.322;22.816;2024-01-30T00:10:15;16.38;;;7.35;;
22922;SDS011;11627;51.322;22.816;2024-01-30T00:12:43;17.10;;;7.05;;
22922;SDS011;11627;51.322;22.816;2024-01-30T00:15:10;16.15;;;7.60;;
22922;SDS011;11627;51.322;22.816;2024-01-30T00:17:38;17.70;;;7.88;;
22922;SDS011;11627;51.322;22.816;2024-01-30T00:20:04;16.58;;;7.82;;
22922;SDS011;11627;51.322;22.816;2024-01-30T00:22:34;21.95;;;8.40;;
22922;SDS011;11627;51.322;22.816;2024-01-30T00:25:00;19.98;;;8.55;;
22922;SDS011;11627;51.322;22.816;2024-01-30T00:27:26;22.15;;;8.45;;
22922;SDS011;11627;51.322;22.816;2024-01-30T00:29:52;17.83;;;8.00;;
22922;SDS011;11627;51.322;22.816;2024-01-30T00:32:18;18.67;;;7.70;;
22922;SDS011;11627;51.322;22.816;2024-01-30T00:34:46;20.50;;;7.72;;
22922;SDS011;11627;51.322;22.816;2024-01-30T00:37:13;16.85;;;6.88;;
22922;SDS011;11627;51.322;22.816;2024-01-30T00:39:39;16.00;;;7.05;;
22922;SDS011;11627;51.322;22.816;2024-01-30T00:42:06;15.02;;;7.60;;
22922;SDS011;11627;51.322;22.816;2024-01-30T00:44:36;16.05;;;7.25;;
22922;SDS011;11627;51.322;22.816;2024-01-30T00:47:03;12.57;;;6.63;;
22922;SDS011;11627;51.322;22.816;2024-01-30T00:49:31;16.65;;;7.65;;
22922;SDS011;11627;51.322;22.816;2024-01-30T00:51:57;16.60;;;7.65;;
22922;SDS011;11627;51.322;22.816;2024-01-30T00:54:26;12.68;;;6.88;;
22922;SDS011;11627;51.322;22.816;2024-01-30T00:56:52;16.75;;;7.03;;
22922;SDS011;11627;51.322;22.816;2024-01-30T00:59:21;16.42;;;6.90;;
22922;SDS011;11627;51.322;22.816;2024-01-30T01:01:48;16.33;;;6.97;;
22922;SDS011;11627;51.322;22.816;2024-01-30T01:04:14;14.48;;;6.78;;
22922;SDS011;11627;51.322;22.816;2024-01-30T01:06:40;14.52;;;6.93;;
22922;SDS011;11627;51.322;22.816;2024-01-30T01:09:12;13.75;;;6.95;;
22922;SDS011;11627;51.322;22.816;2024-01-30T01:11:38;13.05;;;6.80;;
22922;SDS011;11627;51.322;22.816;2024-01-30T01:16:42;16.95;;;7.05;;
22922;SDS011;11627;51.322;22.816;2024-01-30T01:19:08;13.50;;;6.82;;
22922;SDS011;11627;51.322;22.816;2024-01-30T01:21:34;16.23;;;7.43;;
22922;SDS011;11627;51.322;22.816;2024-01-30T01:24:01;16.38;;;6.30;;
22922;SDS011;11627;51.322;22.816;2024-01-30T01:26:27;13.98;;;6.80;;
22922;SDS011;11627;51.322;22.816;2024-01-30T01:28:53;15.50;;;7.65;;
22922;SDS011;11627;51.322;22.816;2024-01-30T01:31:20;17.35;;;6.95;;
22922;SDS011;11627;51.322;22.816;2024-01-30T01:33:50;14.50;;;6.60;;
22922;SDS011;11627;51.322;22.816;2024-01-30T01:36:16;12.35;;;6.45;;
22922;SDS011;11627;51.322;22.816;2024-01-30T01:38:42;13.98;;;6.50;;
22922;SDS011;11627;51.322;22.816;2024-01-30T01:41:08;13.13;;;6.35;;
22922;SDS011;11627;51.322;22.816;2024-01-30T01:43:35;13.93;;;6.57;;
22922;SDS011;11627;51.322;22.816;2024-01-30T01:46:03;11.63;;;5.35;;
22922;SDS011;11627;51.322;22.816;2024-01-30T01:48:29;9.88;;;4.60;;
22922;SDS011;11627;51.322;22.816;2024-01-30T01:50:55;15.77;;;7.00;;
22922;SDS011;11627;51.322;22.816;2024-01-30T01:53:22;15.48;;;7.05;;
22922;SDS011;11627;51.322;22.816;2024-01-30T01:55:49;15.73;;;6.35;;
22922;SDS011;11627;51.322;22.816;2024-01-30T01:58:17;9.43;;;4.93;;
22922;SDS011;11627;51.322;22.816;2024-01-30T02:00:45;9.85;;;5.38;;
22922;SDS011;11627;51.322;22.816;2024-01-30T02:03:11;14.40;;;5.95;;
22922;SDS011;11627;51.322;22.816;2024-01-30T02:05:43;7.18;;;3.88;;
22922;SDS011;11627;51.322;22.816;2024-01-30T02:08:09;12.80;;;5.75;;
22922;SDS011;11627;51.322;22.816;2024-01-30T02:10:35;13.00;;;5.95;;
22922;SDS011;11627;51.322;22.816;2024-01-30T02:13:02;13.10;;;5.75;;
22922;SDS011;11627;51.322;22.816;2024-01-30T02:15:28;13.13;;;5.82;;
22922;SDS011;11627;51.322;22.816;2024-01-30T02:17:54;16.20;;;5.95;;
22922;SDS011;11627;51.322;22.816;2024-01-30T02:20:20;10.90;;;5.55;;
22922;SDS011;11627;51.322;22.816;2024-01-30T02:22:49;11.27;;;5.82;;
22922;SDS011;11627;51.322;22.816;2024-01-30T02:25:18;13.40;;;5.80;;
22922;SDS011;11627;51.322;22.816;2024-01-30T02:27:45;11.55;;;5.93;;
22922;SDS011;11627;51.322;22.816;2024-01-30T02:30:12;12.65;;;6.40;;
22922;SDS011;11627;51.322;22.816;2024-01-30T02:32:38;12.05;;;5.70;;
22922;SDS011;11627;51.322;22.816;2024-01-30T02:35:04;14.93;;;5.50;;
22922;SDS011;11627;51.322;22.816;2024-01-30T02:37:30;12.15;;;6.03;;
22922;SDS011;11627;51.322;22.816;2024-01-30T02:39:56;13.18;;;5.97;;
22922;SDS011;11627;51.322;22.816;2024-01-30T02:42:23;14.95;;;6.50;;
22922;SDS011;11627;51.322;22.816;2024-01-30T02:44:50;12.35;;;5.95;;
22922;SDS011;11627;51.322;22.816;2024-01-30T02:47:16;13.07;;;5.95;;
22922;SDS011;11627;51.322;22.816;2024-01-30T02:49:43;13.68;;;6.20;;
22922;SDS011;11627;51.322;22.816;2024-01-30T02:52:10;13.35;;;6.32;;
22922;SDS011;11627;51.322;22.816;2024-01-30T02:54:35;12.10;;;6.00;;
22922;SDS011;11627;51.322;22.816;2024-01-30T02:57:02;11.60;;;5.72;;
22922;SDS011;11627;51.322;22.816;2024-01-30T02:59:27;14.52;;;6.80;;
22922;SDS011;11627;51.322;22.816;2024-01-30T03:01:53;12.65;;;5.57;;
22922;SDS011;11627;51.322;22.816;2024-01-30T03:04:19;11.85;;;5.47;;
22922;SDS011;11627;51.322;22.816;2024-01-30T03:06:45;11.43;;;6.13;;
22922;SDS011;11627;51.322;22.816;2024-01-30T03:09:12;11.75;;;5.95;;
22922;SDS011;11627;51.322;22.816;2024-01-30T03:11:38;12.73;;;6.28;;
22922;SDS011;11627;51.322;22.816;2024-01-30T03:14:04;11.90;;;6.13;;
22922;SDS011;11627;51.322;22.816;2024-01-30T03:16:30;12.07;;;6.20;;
22922;SDS011;11627;51.322;22.816;2024-01-30T03:18:56;17.30;;;6.80;;
22922;SDS011;11627;51.322;22.816;2024-01-30T03:21:22;15.80;;;6.30;;
22922;SDS011;11627;51.322;22.816;2024-01-30T03:23:49;17.67;;;6.60;;
22922;SDS011;11627;51.322;22.816;2024-01-30T03:26:14;19.23;;;6.85;;
22922;SDS011;11627;51.322;22.816;2024-01-30T03:28:41;14.32;;;6.32;;
22922;SDS011;11627;51.322;22.816;2024-01-30T03:31:06;16.80;;;6.75;;
22922;SDS011;11627;51.322;22.816;2024-01-30T03:33:32;17.02;;;6.15;;
22922;SDS011;11627;51.322;22.816;2024-01-30T03:36:02;13.77;;;6.30;;
22922;SDS011;11627;51.322;22.816;2024-01-30T03:38:30;13.55;;;5.97;;
22922;SDS011;11627;51.322;22.816;2024-01-30T03:40:58;13.88;;;6.03;;
22922;SDS011;11627;51.322;22.816;2024-01-30T03:43:24;12.65;;;6.45;;
22922;SDS011;11627;51.322;22.816;2024-01-30T03:45:52;12.30;;;5.93;;
22922;SDS011;11627;51.322;22.816;2024-01-30T03:48:19;14.98;;;6.25;;
22922;SDS011;11627;51.322;22.816;2024-01-30T03:50:46;14.10;;;6.03;;
22922;SDS011;11627;51.322;22.816;2024-01-30T03:53:12;13.68;;;5.63;;
22922;SDS011;11627;51.322;22.816;2024-01-30T03:55:38;12.70;;;5.68;;
22922;SDS011;11627;51.322;22.816;2024-01-30T03:58:05;14.38;;;6.13;;
22922;SDS011;11627;51.322;22.816;2024-01-30T04:00:33;14.77;;;5.97;;
22922;SDS011;11627;51.322;22.816;2024-01-30T04:02:59;13.63;;;5.70;;
22922;SDS011;11627;51.322;22.816;2024-01-30T04:05:24;11.73;;;5.65;;
22922;SDS011;11627;51.322;22.816;2024-01-30T04:07:50;10.73;;;5.10;;
22922;SDS011;11627;51.322;22.816;2024-01-30T04:10:17;10.70;;;5.20;;
22922;SDS011;11627;51.322;22.816;2024-01-30T04:12:43;11.68;;;5.22;;
22922;SDS011;11627;51.322;22.816;2024-01-30T04:15:09;11.65;;;5.20;;
22922;SDS011;11627;51.322;22.816;2024-01-30T04:17:36;13.50;;;5.55;;
22922;SDS011;11627;51.322;22.816;2024-01-30T04:20:02;10.40;;;5.38;;
22922;SDS011;11627;51.322;22.816;2024-01-30T04:22:29;10.73;;;5.68;;
22922;SDS011;11627;51.322;22.816;2024-01-30T04:24:55;10.20;;;4.97;;
22922;SDS011;11627;51.322;22.816;2024-01-30T04:27:21;11.18;;;5.60;;
22922;SDS011;11627;51.322;22.816;2024-01-30T04:29:48;11.40;;;5.32;;
22922;SDS011;11627;51.322;22.816;2024-01-30T04:32:15;11.18;;;4.85;;
22922;SDS011;11627;51.322;22.816;2024-01-30T04:34:42;13.90;;;5.78;;
22922;SDS011;11627;51.322;22.816;2024-01-30T04:37:08;9.85;;;5.05;;
22922;SDS011;11627;51.322;22.816;2024-01-30T04:39:34;10.85;;;5.22;;
22922;SDS011;11627;51.322;22.816;2024-01-30T04:42:00;11.95;;;5.57;;
22922;SDS011;11627;51.322;22.816;2024-01-30T04:44:26;10.55;;;5.40;;
22922;SDS011;11627;51.322;22.816;2024-01-30T04:46:52;9.63;;;4.90;;
22922;SDS011;11627;51.322;22.816;2024-01-30T04:49:19;11.32;;;5.43;;
22922;SDS011;11627;51.322;22.816;2024-01-30T04:51:49;11.35;;;5.50;;
22922;SDS011;11627;51.322;22.816;2024-01-30T04:54:17;12.15;;;5.45;;
22922;SDS011;11627;51.322;22.816;2024-01-30T04:56:44;11.73;;;5.55;;
22922;SDS011;11627;51.322;22.816;2024-01-30T04:59:11;12.95;;;5.95;;
22922;SDS011;11627;51.322;22.816;2024-01-30T05:01:37;11.85;;;5.18;;
22922;SDS011;11627;51.322;22.816;2024-01-30T05:04:03;11.75;;;5.40;;
22922;SDS011;11627;51.322;22.816;2024-01-30T05:06:32;12.48;;;5.43;;
22922;SDS011;11627;51.322;22.816;2024-01-30T05:08:58;11.18;;;5.45;;
22922;SDS011;11627;51.322;22.816;2024-01-30T05:11:24;11.60;;;5.10;;
22922;SDS011;11627;51.322;22.816;2024-01-30T05:13:50;10.52;;;4.40;;
22922;SDS011;11627;51.322;22.816;2024-01-30T05:16:16;9.88;;;4.63;;
22922;SDS011;11627;51.322;22.816;2024-01-30T05:18:43;11.32;;;5.07;;
22922;SDS011;11627;51.322;22.816;2024-01-30T05:21:11;11.77;;;5.25;;
22922;SDS011;11627;51.322;22.816;2024-01-30T05:23:37;9.50;;;3.53;;
22922;SDS011;11627;51.322;22.816;2024-01-30T05:26:03;10.75;;;4.50;;
22922;SDS011;11627;51.322;22.816;2024-01-30T05:28:29;10.27;;;4.30;;
22922;SDS011;11627;51.322;22.816;2024-01-30T05:30:56;13.52;;;4.85;;
22922;SDS011;11627;51.322;22.816;2024-01-30T05:33:23;12.35;;;5.57;;
22922;SDS011;11627;51.322;22.816;2024-01-30T05:35:50;7.45;;;4.43;;
22922;SDS011;11627;51.322;22.816;2024-01-30T05:38:20;9.23;;;4.57;;
22922;SDS011;11627;51.322;22.816;2024-01-30T05:40:46;8.15;;;3.75;;
22922;SDS011;11627;51.322;22.816;2024-01-30T05:43:12;10.50;;;4.22;;
22922;SDS011;11627;51.322;22.816;2024-01-30T05:45:38;10.07;;;4.90;;
22922;SDS011;11627;51.322;22.816;2024-01-30T05:48:04;9.50;;;4.57;;
22922;SDS011;11627;51.322;22.816;2024-01-30T05:50:30;17.27;;;6.50;;
22922;SDS011;11627;51.322;22.816;2024-01-30T05:52:56;13.32;;;4.53;;
22922;SDS011;11627;51.322;22.816;2024-01-30T05:55:22;12.98;;;6.18;;
22922;SDS011;11627;51.322;22.816;2024-01-30T05:57:48;11.98;;;5.30;;
22922;SDS011;11627;51.322;22.816;2024-01-30T06:00:16;8.73;;;3.85;;
22922;SDS011;11627;51.322;22.816;2024-01-30T06:02:42;12.13;;;5.47;;
22922;SDS011;11627;51.322;22.816;2024-01-30T06:05:10;11.45;;;5.43;;
22922;SDS011;11627;51.322;22.816;2024-01-30T06:07:36;12.02;;;5.68;;
22922;SDS011;11627;51.322;22.816;2024-01-30T06:10:02;10.93;;;4.82;;
22922;SDS011;11627;51.322;22.816;2024-01-30T06:12:29;13.68;;;5.63;;
22922;SDS011;11627;51.322;22.816;2024-01-30T06:14:56;10.95;;;5.07;;
22922;SDS011;11627;51.322;22.816;2024-01-30T06:17:22;11.27;;;5.38;;
22922;SDS011;11627;51.322;22.816;2024-01-30T06:19:49;12.27;;;5.75;;
22922;SDS011;11627;51.322;22.816;2024-01-30T06:22:15;14.27;;;6.25;;
22922;SDS011;11627;51.322;22.816;2024-01-30T06:24:42;15.00;;;5.65;;
22922;SDS011;11627;51.322;22.816;2024-01-30T06:27:11;10.00;;;5.20;;
22922;SDS011;11627;51.322;22.816;2024-01-30T06:29:37;10.57;;;5.43;;
22922;SDS011;11627;51.322;22.816;2024-01-30T06:32:02;11.25;;;5.38;;
22922;SDS011;11627;51.322;22.816;2024-01-30T06:34:29;12.07;;;5.75;;
22922;SDS011;11627;51.322;22.816;2024-01-30T06:36:56;12.20;;;5.78;;
22922;SDS011;11627;51.322;22.816;2024-01-30T06:39:21;8.10;;;3.53;;
22922;SDS011;11627;51.322;22.816;2024-01-30T06:41:48;11.35;;;5.28;;
22922;SDS011;11627;51.322;22.816;2024-01-30T06:44:14;11.10;;;4.90;;
22922;SDS011;11627;51.322;22.816;2024-01-30T06:46:40;15.52;;;6.00;;
22922;SDS011;11627;51.322;22.816;2024-01-30T06:49:06;12.23;;;5.85;;
22922;SDS011;11627;51.322;22.816;2024-01-30T06:51:32;12.35;;;5.60;;
22922;SDS011;11627;51.322;22.816;2024-01-30T06:53:58;7.47;;;3.97;;
22922;SDS011;11627;51.322;22.816;2024-01-30T06:56:27;13.93;;;5.43;;
22922;SDS011;11627;51.322;22.816;2024-01-30T06:58:53;13.70;;;5.78;;
22922;SDS011;11627;51.322;22.816;2024-01-30T07:01:20;15.80;;;6.57;;
22922;SDS011;11627;51.322;22.816;2024-01-30T07:03:46;11.82;;;6.25;;
22922;SDS011;11627;51.322;22.816;2024-01-30T07:06:12;13.10;;;6.10;;
22922;SDS011;11627;51.322;22.816;2024-01-30T07:08:38;12.45;;;6.40;;
22922;SDS011;11627;51.322;22.816;2024-01-30T07:11:07;14.60;;;6.47;;
22922;SDS011;11627;51.322;22.816;2024-01-30T07:13:33;13.00;;;6.47;;
22922;SDS011;11627;51.322;22.816;2024-01-30T07:16:01;15.68;;;6.93;;
22922;SDS011;11627;51.322;22.816;2024-01-30T07:18:28;12.77;;;6.57;;
22922;SDS011;11627;51.322;22.816;2024-01-30T07:20:54;13.95;;;6.95;;
22922;SDS011;11627;51.322;22.816;2024-01-30T07:23:20;13.45;;;6.60;;
22922;SDS011;11627;51.322;22.816;2024-01-30T07:25:46;13.95;;;6.57;;
22922;SDS011;11627;51.322;22.816;2024-01-30T07:28:14;15.90;;;6.35;;
22922;SDS011;11627;51.322;22.816;2024-01-30T07:30:43;13.77;;;6.85;;
22922;SDS011;11627;51.322;22.816;2024-01-30T07:33:09;15.00;;;6.88;;
22922;SDS011;11627;51.322;22.816;2024-01-30T07:35:35;16.48;;;5.60;;
22922;SDS011;11627;51.322;22.816;2024-01-30T07:38:01;13.35;;;5.68;;
22922;SDS011;11627;51.322;22.816;2024-01-30T07:40:29;13.80;;;7.07;;
22922;SDS011;11627;51.322;22.816;2024-01-30T07:42:55;16.52;;;7.40;;
22922;SDS011;11627;51.322;22.816;2024-01-30T07:45:21;15.02;;;7.00;;
22922;SDS011;11627;51.322;22.816;2024-01-30T07:47:49;15.27;;;7.03;;
22922;SDS011;11627;51.322;22.816;2024-01-30T07:50:15;13.23;;;7.10;;
22922;SDS011;11627;51.322;22.816;2024-01-30T07:52:42;14.35;;;7.57;;
22922;SDS011;11627;51.322;22.816;2024-01-30T07:55:08;17.00;;;8.18;;
22922;SDS011;11627;51.322;22.816;2024-01-30T07:57:35;16.15;;;7.65;;
22922;SDS011;11627;51.322;22.816;2024-01-30T08:00:03;14.32;;;7.05;;
22922;SDS011;11627;51.322;22.816;2024-01-30T08:02:32;15.20;;;6.93;;
22922;SDS011;11627;51.322;22.816;2024-01-30T08:04:58;17.90;;;8.32;;
22922;SDS011;11627;51.322;22.816;2024-01-30T08:07:24;15.68;;;7.40;;
22922;SDS011;11627;51.322;22.816;2024-01-30T08:09:50;13.07;;;6.93;;
22922;SDS011;11627;51.322;22.816;2024-01-30T08:12:16;15.35;;;7.07;;
22922;SDS011;11627;51.322;22.816;2024-01-30T08:14:42;15.98;;;6.85;;
22922;SDS011;11627;51.322;22.816;2024-01-30T08:17:08;18.05;;;7.45;;
22922;SDS011;11627;51.322;22.816;2024-01-30T08:19:34;14.20;;;6.88;;
22922;SDS011;11627;51.322;22.816;2024-01-30T08:22:00;14.38;;;6.65;;
22922;SDS011;11627;51.322;22.816;2024-01-30T08:24:26;11.05;;;5.45;;
22922;SDS011;11627;51.322;22.816;2024-01-30T08:26:52;14.57;;;7.05;;
22922;SDS011;11627;51.322;22.816;2024-01-30T08:29:18;11.38;;;5.40;;
22922;SDS011;11627;51.322;22.816;2024-01-30T08:31:44;11.68;;;5.93;;
22922;SDS011;11627;51.322;22.816;2024-01-30T08:34:11;9.75;;;5.18;;
22922;SDS011;11627;51.322;22.816;2024-01-30T08:36:38;17.40;;;7.00;;
22922;SDS011;11627;51.322;22.816;2024-01-30T08:39:06;11.43;;;5.80;;
22922;SDS011;11627;51.322;22.816;2024-01-30T08:41:33;14.05;;;6.15;;
22922;SDS011;11627;51.322;22.816;2024-01-30T08:43:59;9.55;;;4.75;;
22922;SDS011;11627;51.322;22.816;2024-01-30T08:46:27;14.00;;;6.28;;
22922;SDS011;11627;51.322;22.816;2024-01-30T08:48:54;9.40;;;4.55;;
22922;SDS011;11627;51.322;22.816;2024-01-30T08:51:20;13.13;;;5.38;;
22922;SDS011;11627;51.322;22.816;2024-01-30T08:53:48;14.02;;;6.88;;
22922;SDS011;11627;51.322;22.816;2024-01-30T08:56:14;15.75;;;7.63;;
22922;SDS011;11627;51.322;22.816;2024-01-30T08:58:42;20.02;;;8.50;;
22922;SDS011;11627;51.322;22.816;2024-01-30T09:01:08;15.93;;;8.07;;
22922;SDS011;11627;51.322;22.816;2024-01-30T09:03:34;18.00;;;8.60;;
22922;SDS011;11627;51.322;22.816;2024-01-30T09:06:01;17.27;;;7.78;;
22922;SDS011;11627;51.322;22.816;2024-01-30T09:08:28;18.17;;;8.07;;
22922;SDS011;11627;51.322;22.816;2024-01-30T09:10:53;17.83;;;9.13;;
22922;SDS011;11627;51.322;22.816;2024-01-30T09:13:20;15.48;;;8.23;;
22922;SDS011;11627;51.322;22.816;2024-01-30T09:15:45;17.52;;;8.20;;
22922;SDS011;11627;51.322;22.816;2024-01-30T09:18:13;18.02;;;8.30;;
22922;SDS011;11627;51.322;22.816;2024-01-30T09:20:39;12.45;;;6.25;;
22922;SDS011;11627;51.322;22.816;2024-01-30T09:23:05;14.52;;;6.68;;
22922;SDS011;11627;51.322;22.816;2024-01-30T09:25:30;14.05;;;8.05;;
22922;SDS011;11627;51.322;22.816;2024-01-30T09:27:57;20.30;;;8.98;;
22922;SDS011;11627;51.322;22.816;2024-01-30T09:30:24;16.20;;;8.05;;
22922;SDS011;11627;51.322;22.816;2024-01-30T09:32:49;17.40;;;7.15;;
22922;SDS011;11627;51.322;22.816;2024-01-30T09:35:16;16.85;;;7.65;;
22922;SDS011;11627;51.322;22.816;2024-01-30T09:37:42;12.73;;;6.20;;
22922;SDS011;11627;51.322;22.816;2024-01-30T09:40:08;15.80;;;7.00;;
22922;SDS011;11627;51.322;22.816;2024-01-30T09:42:36;17.40;;;8.20;;
22922;SDS011;11627;51.322;22.816;2024-01-30T09:45:02;14.38;;;6.25;;
22922;SDS011;11627;51.322;22.816;2024-01-30T09:47:47;14.35;;;6.68;;
22922;SDS011;11627;51.322;22.816;2024-01-30T09:50:16;11.43;;;5.30;;
22922;SDS011;11627;51.322;22.816;2024-01-30T09:52:44;14.25;;;6.75;;
22922;SDS011;11627;51.322;22.816;2024-01-30T09:55:11;14.00;;;6.93;;
22922;SDS011;11627;51.322;22.816;2024-01-30T09:57:37;12.13;;;6.03;;
22922;SDS011;11627;51.322;22.816;2024-01-30T10:00:06;12.07;;;6.22;;
22922;SDS011;11627;51.322;22.816;2024-01-30T10:02:37;12.60;;;6.57;;
22922;SDS011;11627;51.322;22.816;2024-01-30T10:05:03;9.48;;;5.25;;
22922;SDS011;11627;51.322;22.816;2024-01-30T10:07:30;19.08;;;9.10;;
22922;SDS011;11627;51.322;22.816;2024-01-30T10:09:56;15.00;;;6.85;;
22922;SDS011;11627;51.322;22.816;2024-01-30T10:12:23;17.25;;;7.32;;
22922;SDS011;11627;51.322;22.816;2024-01-30T10:14:52;13.43;;;6.47;;
22922;SDS011;11627;51.322;22.816;2024-01-30T10:17:19;22.35;;;8.40;;
22922;SDS011;11627;51.322;22.816;2024-01-30T10:19:47;20.05;;;8.00;;
22922;SDS011;11627;51.322;22.816;2024-01-30T10:22:14;27.48;;;9.35;;
22922;SDS011;11627;51.322;22.816;2024-01-30T10:24:41;15.48;;;6.65;;
22922;SDS011;11627;51.322;22.816;2024-01-30T10:27:10;13.90;;;7.05;;
22922;SDS011;11627;51.322;22.816;2024-01-30T10:29:36;14.65;;;6.80;;
22922;SDS011;11627;51.322;22.816;2024-01-30T10:32:03;16.95;;;7.57;;
22922;SDS011;11627;51.322;22.816;2024-01-30T10:34:30;19.10;;;7.95;;
22922;SDS011;11627;51.322;22.816;2024-01-30T10:37:05;11.57;;;5.95;;
22922;SDS011;11627;51.322;22.816;2024-01-30T10:39:42;15.40;;;7.38;;
22922;SDS011;11627;51.322;22.816;2024-01-30T10:42:15;14.73;;;6.95;;
22922;SDS011;11627;51.322;22.816;2024-01-30T10:47:36;21.70;;;9.95;;
22922;SDS011;11627;51.322;22.816;2024-01-30T10:50:03;22.33;;;9.00;;
22922;SDS011;11627;51.322;22.816;2024-01-30T10:52:31;22.52;;;7.72;;
22922;SDS011;11627;51.322;22.816;2024-01-30T10:54:58;18.52;;;8.60;;
22922;SDS011;11627;51.322;22.816;2024-01-30T10:57:25;17.00;;;8.15;;
22922;SDS011;11627;51.322;22.816;2024-01-30T10:59:56;14.48;;;7.82;;
22922;SDS011;11627;51.322;22.816;2024-01-30T11:02:24;11.45;;;6.70;;
22922;SDS011;11627;51.322;22.816;2024-01-30T11:04:55;15.75;;;7.45;;
22922;SDS011;11627;51.322;22.816;2024-01-30T11:07:27;18.33;;;7.85;;
22922;SDS011;11627;51.322;22.816;2024-01-30T11:09:59;20.42;;;8.43;;
22922;SDS011;11627;51.322;22.816;2024-01-30T11:12:30;18.05;;;8.52;;
22922;SDS011;11627;51.322;22.816;2024-01-30T11:15:03;14.95;;;8.05;;
22922;SDS011;11627;51.322;22.816;2024-01-30T11:20:23;16.02;;;7.88;;
22922;SDS011;11627;51.322;22.816;2024-01-30T11:22:56;19.58;;;8.32;;
22922;SDS011;11627;51.322;22.816;2024-01-30T11:25:23;15.20;;;7.93;;
22922;SDS011;11627;51.322;22.816;2024-01-30T11:27:54;16.20;;;8.52;;
22922;SDS011;11627;51.322;22.816;2024-01-30T11:30:24;19.40;;;8.57;;
22922;SDS011;11627;51.322;22.816;2024-01-30T11:35:37;17.52;;;8.27;;
22922;SDS011;11627;51.322;22.816;2024-01-30T11:38:06;17.38;;;8.05;;
22922;SDS011;11627;51.322;22.816;2024-01-30T11:40:34;17.50;;;8.43;;
22922;SDS011;11627;51.322;22.816;2024-01-30T11:43:05;16.98;;;8.57;;
22922;SDS011;11627;51.322;22.816;2024-01-30T11:45:38;13.32;;;7.60;;
22922;SDS011;11627;51.322;22.816;2024-01-30T11:48:07;19.70;;;8.73;;
22922;SDS011;11627;51.322;22.816;2024-01-30T11:50:38;19.50;;;8.18;;
22922;SDS011;11627;51.322;22.816;2024-01-30T11:53:09;16.23;;;7.18;;
22922;SDS011;11627;51.322;22.816;2024-01-30T11:55:36;16.13;;;6.53;;
22922;SDS011;11627;51.322;22.816;2024-01-30T11:58:03;13.23;;;7.30;;
22922;SDS011;11627;51.322;22.816;2024-01-30T12:00:29;11.80;;;6.07;;
22922;SDS011;11627;51.322;22.816;2024-01-30T12:02:56;19.35;;;9.25;;
22922;SDS011;11627;51.322;22.816;2024-01-30T12:05:24;15.45;;;7.22;;
22922;SDS011;11627;51.322;22.816;2024-01-30T12:07:52;17.48;;;8.18;;
22922;SDS011;11627;51.322;22.816;2024-01-30T12:10:19;18.27;;;7.93;;
22922;SDS011;11627;51.322;22.816;2024-01-30T12:12:47;15.25;;;6.70;;
22922;SDS011;11627;51.322;22.816;2024-01-30T12:15:15;25.30;;;8.15;;
22922;SDS011;11627;51.322;22.816;2024-01-30T12:17:42;15.90;;;6.35;;
22922;SDS011;11627;51.322;22.816;2024-01-30T12:20:08;17.20;;;7.43;;
22922;SDS011;11627;51.322;22.816;2024-01-30T12:22:37;18.02;;;7.88;;
22922;SDS011;11627;51.322;22.816;2024-01-30T12:25:08;17.55;;;8.80;;
22922;SDS011;11627;51.322;22.816;2024-01-30T12:27:42;18.60;;;6.75;;
22922;SDS011;11627;51.322;22.816;2024-01-30T12:30:17;17.77;;;7.95;;
22922;SDS011;11627;51.322;22.816;2024-01-30T12:32:45;17.92;;;9.07;;
22922;SDS011;11627;51.322;22.816;2024-01-30T12:35:16;17.58;;;8.13;;
22922;SDS011;11627;51.322;22.816;2024-01-30T12:37:45;14.77;;;6.95;;
22922;SDS011;11627;51.322;22.816;2024-01-30T12:40:15;17.02;;;7.13;;
22922;SDS011;11627;51.322;22.816;2024-01-30T12:42:42;16.38;;;7.25;;
22922;SDS011;11627;51.322;22.816;2024-01-30T12:45:13;17.10;;;6.78;;
22922;SDS011;11627;51.322;22.816;2024-01-30T12:47:40;12.52;;;6.03;;
22922;SDS011;11627;51.322;22.816;2024-01-30T12:50:07;13.77;;;6.57;;
22922;SDS011;11627;51.322;22.816;2024-01-30T12:52:33;18.02;;;8.80;;
22922;SDS011;11627;51.322;22.816;2024-01-30T12:55:00;15.02;;;6.88;;
22922;SDS011;11627;51.322;22.816;2024-01-30T12:57:30;21.52;;;7.90;;
22922;SDS011;11627;51.322;22.816;2024-01-30T12:59:56;13.65;;;5.43;;
22922;SDS011;11627;51.322;22.816;2024-01-30T13:02:23;18.90;;;8.40;;
22922;SDS011;11627;51.322;22.816;2024-01-30T13:04:49;16.38;;;7.30;;
22922;SDS011;11627;51.322;22.816;2024-01-30T13:07:15;15.27;;;7.57;;
22922;SDS011;11627;51.322;22.816;2024-01-30T13:09:42;16.13;;;8.52;;
22922;SDS011;11627;51.322;22.816;2024-01-30T13:12:07;17.58;;;8.07;;
22922;SDS011;11627;51.322;22.816;2024-01-30T13:14:34;16.75;;;7.78;;
22922;SDS011;11627;51.322;22.816;2024-01-30T13:16:59;15.25;;;7.97;;
22922;SDS011;11627;51.322;22.816;2024-01-30T13:19:26;16.25;;;6.85;;
22922;SDS011;11627;51.322;22.816;2024-01-30T13:21:52;15.98;;;8.25;;
22922;SDS011;11627;51.322;22.816;2024-01-30T13:24:18;25.98;;;10.73;;
22922;SDS011;11627;51.322;22.816;2024-01-30T13:26:46;15.75;;;8.15;;
22922;SDS011;11627;51.322;22.816;2024-01-30T13:29:14;17.63;;;9.07;;
22922;SDS011;11627;51.322;22.816;2024-01-30T13:31:40;19.45;;;10.15;;
22922;SDS011;11627;51.322;22.816;2024-01-30T13:34:06;28.27;;;13.25;;
22922;SDS011;11627;51.322;22.816;2024-01-30T13:36:32;22.50;;;11.48;;
22922;SDS011;11627;51.322;22.816;2024-01-30T13:38:58;26.52;;;12.05;;
22922;SDS011;11627;51.322;22.816;2024-01-30T13:41:24;25.55;;;12.00;;
22922;SDS011;11627;51.322;22.816;2024-01-30T13:43:50;29.13;;;12.35;;
22922;SDS011;11627;51.322;22.816;2024-01-30T13:46:17;20.05;;;10.23;;
22922;SDS011;11627;51.322;22.816;2024-01-30T13:48:43;24.48;;;10.88;;
22922;SDS011;11627;51.322;22.816;2024-01-30T13:51:09;20.30;;;9.82;;
22922;SDS011;11627;51.322;22.816;2024-01-30T13:53:36;19.13;;;9.82;;
22922;SDS011;11627;51.322;22.816;2024-01-30T13:56:02;20.95;;;9.60;;
22922;SDS011;11627;51.322;22.816;2024-01-30T13:58:28;18.67;;;9.77;;
22922;SDS011;11627;51.322;22.816;2024-01-30T14:00:54;21.55;;;10.38;;
22922;SDS011;11627;51.322;22.816;2024-01-30T14:03:22;19.95;;;10.57;;
22922;SDS011;11627;51.322;22.816;2024-01-30T14:05:48;19.95;;;10.43;;
22922;SDS011;11627;51.322;22.816;2024-01-30T14:08:14;17.27;;;9.93;;
22922;SDS011;11627;51.322;22.816;2024-01-30T14:10:40;17.88;;;10.07;;
22922;SDS011;11627;51.322;22.816;2024-01-30T14:13:06;18.00;;;9.90;;
22922;SDS011;11627;51.322;22.816;2024-01-30T14:15:32;12.98;;;8.10;;
22922;SDS011;11627;51.322;22.816;2024-01-30T14:17:58;14.98;;;8.00;;
22922;SDS011;11627;51.322;22.816;2024-01-30T14:20:24;13.77;;;7.82;;
22922;SDS011;11627;51.322;22.816;2024-01-30T14:22:50;15.80;;;8.43;;
22922;SDS011;11627;51.322;22.816;2024-01-30T14:25:16;17.73;;;8.45;;
22922;SDS011;11627;51.322;22.816;2024-01-30T14:27:42;15.00;;;8.23;;
22922;SDS011;11627;51.322;22.816;2024-01-30T14:30:10;15.95;;;8.48;;